Terminal Aerodrome Forecast
Issued by NWS Wakefield, VA

Home | Current Version | Previous Version | Text Only | Print | Product List | Glossary On
Versions: 1 2 3 4 5 6 7 8 9 10 11 12 13 14 15 16
000
FTUS41 KAKQ 222320
TAFECG
TAF
KECG 222320Z 2300/2324 19010KT P6SM FEW030
     FM231500 23009KT P6SM BKN100
     FM232100 22008KT 4SM SHRA BKN080=

USA.gov is the U.S. government's official web portal to all federal, state and local government web resources and services.